sensor_id;sensor_type;location;lat;lon;timestamp;P1;durP1;ratioP1;P2;durP2;ratioP2
40907;SDS011;51055;59.436;24.778;2022-11-25T00:01:32;24.65;;;12.20;;
40907;SDS011;51055;59.436;24.778;2022-11-25T00:04:00;26.90;;;12.60;;
40907;SDS011;51055;59.436;24.778;2022-11-25T00:06:31;23.38;;;12.48;;
40907;SDS011;51055;59.436;24.778;2022-11-25T00:09:03;23.55;;;12.32;;
40907;SDS011;51055;59.436;24.778;2022-11-25T00:11:32;23.95;;;11.95;;
40907;SDS011;51055;59.436;24.778;2022-11-25T00:14:00;22.05;;;12.07;;
40907;SDS011;51055;59.436;24.778;2022-11-25T00:16:28;23.95;;;12.32;;
40907;SDS011;51055;59.436;24.778;2022-11-25T00:18:55;28.35;;;13.07;;
40907;SDS011;51055;59.436;24.778;2022-11-25T00:21:24;21.95;;;11.93;;
40907;SDS011;51055;59.436;24.778;2022-11-25T00:23:53;21.75;;;11.23;;
40907;SDS011;51055;59.436;24.778;2022-11-25T00:26:20;26.05;;;11.70;;
40907;SDS011;51055;59.436;24.778;2022-11-25T00:28:48;26.65;;;13.00;;
40907;SDS011;51055;59.436;24.778;2022-11-25T00:31:20;24.60;;;11.90;;
40907;SDS011;51055;59.436;24.778;2022-11-25T00:33:49;24.60;;;12.02;;
40907;SDS011;51055;59.436;24.778;2022-11-25T00:36:21;18.33;;;9.23;;
40907;SDS011;51055;59.436;24.778;2022-11-25T00:38:52;25.27;;;11.60;;
40907;SDS011;51055;59.436;24.778;2022-11-25T00:41:19;29.65;;;13.40;;
40907;SDS011;51055;59.436;24.778;2022-11-25T00:44:06;25.80;;;12.68;;
40907;SDS011;51055;59.436;24.778;2022-11-25T00:46:53;28.98;;;12.38;;
40907;SDS011;51055;59.436;24.778;2022-11-25T00:49:20;24.38;;;11.93;;
40907;SDS011;51055;59.436;24.778;2022-11-25T00:51:47;24.13;;;12.15;;
40907;SDS011;51055;59.436;24.778;2022-11-25T00:54:15;23.55;;;11.38;;
40907;SDS011;51055;59.436;24.778;2022-11-25T00:56:42;29.25;;;13.27;;
40907;SDS011;51055;59.436;24.778;2022-11-25T00:59:09;23.00;;;11.93;;
40907;SDS011;51055;59.436;24.778;2022-11-25T01:01:37;27.27;;;12.60;;
40907;SDS011;51055;59.436;24.778;2022-11-25T01:04:04;24.95;;;12.60;;
40907;SDS011;51055;59.436;24.778;2022-11-25T01:06:32;26.55;;;11.95;;
40907;SDS011;51055;59.436;24.778;2022-11-25T01:09:00;22.42;;;11.68;;
40907;SDS011;51055;59.436;24.778;2022-11-25T01:11:28;24.83;;;11.73;;
40907;SDS011;51055;59.436;24.778;2022-11-25T01:13:55;21.83;;;11.45;;
40907;SDS011;51055;59.436;24.778;2022-11-25T01:16:27;25.00;;;12.30;;
40907;SDS011;51055;59.436;24.778;2022-11-25T01:18:57;23.60;;;12.67;;
40907;SDS011;51055;59.436;24.778;2022-11-25T01:21:25;29.50;;;13.60;;
40907;SDS011;51055;59.436;24.778;2022-11-25T01:23:52;23.65;;;12.27;;
40907;SDS011;51055;59.436;24.778;2022-11-25T01:26:21;23.05;;;11.75;;
40907;SDS011;51055;59.436;24.778;2022-11-25T01:28:48;26.55;;;13.23;;
40907;SDS011;51055;59.436;24.778;2022-11-25T01:31:20;25.10;;;11.38;;
40907;SDS011;51055;59.436;24.778;2022-11-25T01:33:51;23.70;;;11.55;;
40907;SDS011;51055;59.436;24.778;2022-11-25T01:36:18;23.00;;;11.57;;
40907;SDS011;51055;59.436;24.778;2022-11-25T01:38:48;22.02;;;12.20;;
40907;SDS011;51055;59.436;24.778;2022-11-25T01:41:15;21.27;;;10.98;;
40907;SDS011;51055;59.436;24.778;2022-11-25T01:43:42;21.45;;;11.63;;
40907;SDS011;51055;59.436;24.778;2022-11-25T01:46:26;20.92;;;11.50;;
40907;SDS011;51055;59.436;24.778;2022-11-25T01:48:56;23.85;;;12.32;;
40907;SDS011;51055;59.436;24.778;2022-11-25T01:51:27;25.70;;;11.75;;
40907;SDS011;51055;59.436;24.778;2022-11-25T01:53:56;23.50;;;11.98;;
40907;SDS011;51055;59.436;24.778;2022-11-25T01:56:26;23.65;;;11.90;;
40907;SDS011;51055;59.436;24.778;2022-11-25T01:58:56;24.65;;;12.65;;
40907;SDS011;51055;59.436;24.778;2022-11-25T02:01:23;24.42;;;11.73;;
40907;SDS011;51055;59.436;24.778;2022-11-25T02:03:51;23.10;;;11.90;;
40907;SDS011;51055;59.436;24.778;2022-11-25T02:06:23;28.15;;;12.63;;
40907;SDS011;51055;59.436;24.778;2022-11-25T02:11:18;25.58;;;12.35;;
40907;SDS011;51055;59.436;24.778;2022-11-25T02:13:47;22.58;;;11.10;;
40907;SDS011;51055;59.436;24.778;2022-11-25T02:16:16;22.08;;;11.13;;
40907;SDS011;51055;59.436;24.778;2022-11-25T02:18:44;23.77;;;12.07;;
40907;SDS011;51055;59.436;24.778;2022-11-25T02:21:12;21.48;;;11.90;;
40907;SDS011;51055;59.436;24.778;2022-11-25T02:26:08;25.60;;;12.18;;
40907;SDS011;51055;59.436;24.778;2022-11-25T02:28:35;22.58;;;11.57;;
40907;SDS011;51055;59.436;24.778;2022-11-25T02:31:03;24.10;;;12.38;;
40907;SDS011;51055;59.436;24.778;2022-11-25T02:33:31;23.73;;;11.85;;
40907;SDS011;51055;59.436;24.778;2022-11-25T02:36:04;24.75;;;12.55;;
40907;SDS011;51055;59.436;24.778;2022-11-25T02:43:36;25.05;;;12.00;;
40907;SDS011;51055;59.436;24.778;2022-11-25T02:46:10;21.67;;;11.82;;
40907;SDS011;51055;59.436;24.778;2022-11-25T02:48:43;24.45;;;12.23;;
40907;SDS011;51055;59.436;24.778;2022-11-25T02:51:31;26.15;;;12.32;;
40907;SDS011;51055;59.436;24.778;2022-11-25T02:53:59;25.42;;;13.02;;
40907;SDS011;51055;59.436;24.778;2022-11-25T02:56:30;22.60;;;12.35;;
40907;SDS011;51055;59.436;24.778;2022-11-25T02:58:58;22.05;;;11.98;;
40907;SDS011;51055;59.436;24.778;2022-11-25T03:01:25;25.55;;;12.27;;
40907;SDS011;51055;59.436;24.778;2022-11-25T03:03:52;20.20;;;11.60;;
40907;SDS011;51055;59.436;24.778;2022-11-25T03:06:20;21.38;;;11.80;;
40907;SDS011;51055;59.436;24.778;2022-11-25T03:08:47;22.02;;;12.00;;
40907;SDS011;51055;59.436;24.778;2022-11-25T03:11:14;22.60;;;12.40;;
40907;SDS011;51055;59.436;24.778;2022-11-25T03:13:42;23.30;;;12.55;;
40907;SDS011;51055;59.436;24.778;2022-11-25T03:16:09;22.50;;;12.82;;
40907;SDS011;51055;59.436;24.778;2022-11-25T03:18:36;23.60;;;11.98;;
40907;SDS011;51055;59.436;24.778;2022-11-25T03:21:04;21.20;;;12.30;;
40907;SDS011;51055;59.436;24.778;2022-11-25T03:23:31;21.67;;;11.77;;
40907;SDS011;51055;59.436;24.778;2022-11-25T03:26:06;23.00;;;12.60;;
40907;SDS011;51055;59.436;24.778;2022-11-25T03:28:33;22.88;;;12.85;;
40907;SDS011;51055;59.436;24.778;2022-11-25T03:31:01;21.73;;;12.70;;
40907;SDS011;51055;59.436;24.778;2022-11-25T03:33:28;21.15;;;12.07;;
40907;SDS011;51055;59.436;24.778;2022-11-25T03:35:55;23.83;;;13.27;;
40907;SDS011;51055;59.436;24.778;2022-11-25T03:38:22;23.42;;;12.70;;
40907;SDS011;51055;59.436;24.778;2022-11-25T03:40:49;22.52;;;13.15;;
40907;SDS011;51055;59.436;24.778;2022-11-25T03:43:16;24.63;;;13.25;;
40907;SDS011;51055;59.436;24.778;2022-11-25T03:45:46;24.35;;;12.60;;
40907;SDS011;51055;59.436;24.778;2022-11-25T03:48:14;26.52;;;14.18;;
40907;SDS011;51055;59.436;24.778;2022-11-25T03:50:41;25.95;;;14.88;;
40907;SDS011;51055;59.436;24.778;2022-11-25T03:53:09;23.17;;;12.55;;
40907;SDS011;51055;59.436;24.778;2022-11-25T03:55:36;23.73;;;12.48;;
40907;SDS011;51055;59.436;24.778;2022-11-25T03:58:03;22.02;;;12.48;;
40907;SDS011;51055;59.436;24.778;2022-11-25T04:00:30;21.80;;;12.02;;
40907;SDS011;51055;59.436;24.778;2022-11-25T04:05:26;23.52;;;12.63;;
40907;SDS011;51055;59.436;24.778;2022-11-25T04:07:53;23.13;;;13.52;;
40907;SDS011;51055;59.436;24.778;2022-11-25T04:10:24;22.02;;;11.98;;
40907;SDS011;51055;59.436;24.778;2022-11-25T04:12:51;21.45;;;12.50;;
40907;SDS011;51055;59.436;24.778;2022-11-25T04:15:18;22.10;;;13.07;;
40907;SDS011;51055;59.436;24.778;2022-11-25T04:17:45;21.75;;;12.32;;
40907;SDS011;51055;59.436;24.778;2022-11-25T04:20:13;23.30;;;12.68;;
40907;SDS011;51055;59.436;24.778;2022-11-25T04:22:40;27.13;;;14.07;;
40907;SDS011;51055;59.436;24.778;2022-11-25T04:25:07;25.65;;;12.75;;
40907;SDS011;51055;59.436;24.778;2022-11-25T04:27:35;24.08;;;13.45;;
40907;SDS011;51055;59.436;24.778;2022-11-25T04:30:03;27.52;;;13.18;;
40907;SDS011;51055;59.436;24.778;2022-11-25T04:32:30;23.67;;;13.13;;
40907;SDS011;51055;59.436;24.778;2022-11-25T04:34:57;24.80;;;13.88;;
40907;SDS011;51055;59.436;24.778;2022-11-25T04:37:24;25.33;;;13.50;;
40907;SDS011;51055;59.436;24.778;2022-11-25T04:39:52;24.88;;;14.20;;
40907;SDS011;51055;59.436;24.778;2022-11-25T04:42:19;24.73;;;13.68;;
40907;SDS011;51055;59.436;24.778;2022-11-25T04:44:59;25.00;;;13.88;;
40907;SDS011;51055;59.436;24.778;2022-11-25T04:47:46;25.40;;;13.23;;
40907;SDS011;51055;59.436;24.778;2022-11-25T04:50:15;23.52;;;14.30;;
40907;SDS011;51055;59.436;24.778;2022-11-25T04:52:43;22.85;;;12.82;;
40907;SDS011;51055;59.436;24.778;2022-11-25T04:55:11;21.35;;;12.25;;
40907;SDS011;51055;59.436;24.778;2022-11-25T04:57:38;24.80;;;13.48;;
40907;SDS011;51055;59.436;24.778;2022-11-25T05:00:05;21.98;;;12.20;;
40907;SDS011;51055;59.436;24.778;2022-11-25T05:02:33;15.17;;;9.17;;
40907;SDS011;51055;59.436;24.778;2022-11-25T05:05:01;23.40;;;13.20;;
40907;SDS011;51055;59.436;24.778;2022-11-25T05:07:28;24.67;;;12.88;;
40907;SDS011;51055;59.436;24.778;2022-11-25T05:09:56;24.63;;;13.10;;
40907;SDS011;51055;59.436;24.778;2022-11-25T05:12:25;22.40;;;12.60;;
40907;SDS011;51055;59.436;24.778;2022-11-25T05:14:52;26.05;;;12.82;;
40907;SDS011;51055;59.436;24.778;2022-11-25T05:17:20;23.30;;;13.07;;
40907;SDS011;51055;59.436;24.778;2022-11-25T05:19:48;20.08;;;11.38;;
40907;SDS011;51055;59.436;24.778;2022-11-25T05:22:16;22.05;;;13.10;;
40907;SDS011;51055;59.436;24.778;2022-11-25T05:24:44;17.80;;;9.90;;
40907;SDS011;51055;59.436;24.778;2022-11-25T05:27:11;22.38;;;12.85;;
40907;SDS011;51055;59.436;24.778;2022-11-25T05:29:38;22.35;;;12.98;;
40907;SDS011;51055;59.436;24.778;2022-11-25T05:32:05;25.02;;;14.13;;
40907;SDS011;51055;59.436;24.778;2022-11-25T05:34:33;20.50;;;12.52;;
40907;SDS011;51055;59.436;24.778;2022-11-25T05:37:01;23.50;;;13.20;;
40907;SDS011;51055;59.436;24.778;2022-11-25T05:39:28;20.73;;;13.07;;
40907;SDS011;51055;59.436;24.778;2022-11-25T05:41:56;23.42;;;13.38;;
40907;SDS011;51055;59.436;24.778;2022-11-25T05:44:23;28.30;;;12.88;;
40907;SDS011;51055;59.436;24.778;2022-11-25T05:46:50;25.92;;;13.00;;
40907;SDS011;51055;59.436;24.778;2022-11-25T05:49:18;24.10;;;13.32;;
40907;SDS011;51055;59.436;24.778;2022-11-25T05:51:45;21.33;;;12.63;;
40907;SDS011;51055;59.436;24.778;2022-11-25T05:54:13;25.88;;;13.38;;
40907;SDS011;51055;59.436;24.778;2022-11-25T05:56:40;23.10;;;13.20;;
40907;SDS011;51055;59.436;24.778;2022-11-25T05:59:07;22.05;;;12.32;;
40907;SDS011;51055;59.436;24.778;2022-11-25T06:01:35;21.40;;;12.15;;
40907;SDS011;51055;59.436;24.778;2022-11-25T06:04:03;25.17;;;13.02;;
40907;SDS011;51055;59.436;24.778;2022-11-25T06:06:31;25.38;;;14.35;;
40907;SDS011;51055;59.436;24.778;2022-11-25T06:08:58;22.30;;;12.43;;
40907;SDS011;51055;59.436;24.778;2022-11-25T06:11:25;25.67;;;13.00;;
40907;SDS011;51055;59.436;24.778;2022-11-25T06:13:54;25.02;;;13.38;;
40907;SDS011;51055;59.436;24.778;2022-11-25T06:16:22;25.20;;;13.30;;
40907;SDS011;51055;59.436;24.778;2022-11-25T06:18:50;23.58;;;12.25;;
40907;SDS011;51055;59.436;24.778;2022-11-25T06:21:17;26.77;;;13.18;;
40907;SDS011;51055;59.436;24.778;2022-11-25T06:23:45;24.80;;;13.48;;
40907;SDS011;51055;59.436;24.778;2022-11-25T06:26:14;24.02;;;13.32;;
40907;SDS011;51055;59.436;24.778;2022-11-25T06:28:42;24.13;;;13.10;;
40907;SDS011;51055;59.436;24.778;2022-11-25T06:31:11;25.13;;;13.52;;
40907;SDS011;51055;59.436;24.778;2022-11-25T06:33:38;21.10;;;12.30;;
40907;SDS011;51055;59.436;24.778;2022-11-25T06:36:06;26.98;;;13.48;;
40907;SDS011;51055;59.436;24.778;2022-11-25T06:38:34;20.33;;;10.13;;
40907;SDS011;51055;59.436;24.778;2022-11-25T06:41:02;21.88;;;12.43;;
40907;SDS011;51055;59.436;24.778;2022-11-25T06:43:30;16.03;;;9.70;;
40907;SDS011;51055;59.436;24.778;2022-11-25T06:46:01;24.27;;;12.57;;
40907;SDS011;51055;59.436;24.778;2022-11-25T06:48:30;24.10;;;13.90;;
40907;SDS011;51055;59.436;24.778;2022-11-25T06:51:03;24.52;;;13.48;;
40907;SDS011;51055;59.436;24.778;2022-11-25T06:53:31;24.85;;;13.07;;
40907;SDS011;51055;59.436;24.778;2022-11-25T06:58:32;22.45;;;12.70;;
40907;SDS011;51055;59.436;24.778;2022-11-25T07:01:03;21.05;;;12.98;;
40907;SDS011;51055;59.436;24.778;2022-11-25T07:03:31;24.15;;;13.05;;
40907;SDS011;51055;59.436;24.778;2022-11-25T07:05:58;21.90;;;12.55;;
40907;SDS011;51055;59.436;24.778;2022-11-25T07:08:26;21.70;;;12.68;;
40907;SDS011;51055;59.436;24.778;2022-11-25T07:11:09;21.13;;;13.05;;
40907;SDS011;51055;59.436;24.778;2022-11-25T07:13:37;25.67;;;13.52;;
40907;SDS011;51055;59.436;24.778;2022-11-25T07:16:04;25.05;;;13.15;;
40907;SDS011;51055;59.436;24.778;2022-11-25T07:18:33;17.83;;;10.13;;
40907;SDS011;51055;59.436;24.778;2022-11-25T07:21:04;21.83;;;12.50;;
40907;SDS011;51055;59.436;24.778;2022-11-25T07:23:33;20.80;;;12.90;;
40907;SDS011;51055;59.436;24.778;2022-11-25T07:26:05;28.40;;;13.60;;
40907;SDS011;51055;59.436;24.778;2022-11-25T07:28:33;25.05;;;13.45;;
40907;SDS011;51055;59.436;24.778;2022-11-25T07:36:16;22.25;;;12.38;;
40907;SDS011;51055;59.436;24.778;2022-11-25T07:38:44;22.77;;;13.38;;
40907;SDS011;51055;59.436;24.778;2022-11-25T07:41:13;22.73;;;12.95;;
40907;SDS011;51055;59.436;24.778;2022-11-25T07:43:49;24.55;;;13.27;;
40907;SDS011;51055;59.436;24.778;2022-11-25T07:46:21;24.13;;;14.27;;
40907;SDS011;51055;59.436;24.778;2022-11-25T07:48:59;23.60;;;13.45;;
40907;SDS011;51055;59.436;24.778;2022-11-25T07:51:37;24.35;;;13.90;;
40907;SDS011;51055;59.436;24.778;2022-11-25T07:54:06;29.20;;;17.13;;
40907;SDS011;51055;59.436;24.778;2022-11-25T07:56:34;27.58;;;15.85;;
40907;SDS011;51055;59.436;24.778;2022-11-25T07:59:02;40.63;;;20.67;;
40907;SDS011;51055;59.436;24.778;2022-11-25T08:01:30;41.80;;;22.60;;
40907;SDS011;51055;59.436;24.778;2022-11-25T08:03:57;24.42;;;14.02;;
40907;SDS011;51055;59.436;24.778;2022-11-25T08:06:26;27.67;;;16.02;;
40907;SDS011;51055;59.436;24.778;2022-11-25T08:09:10;28.30;;;16.10;;
40907;SDS011;51055;59.436;24.778;2022-11-25T08:11:38;34.95;;;19.70;;
40907;SDS011;51055;59.436;24.778;2022-11-25T08:14:05;26.23;;;14.95;;
40907;SDS011;51055;59.436;24.778;2022-11-25T08:16:32;33.60;;;17.50;;
40907;SDS011;51055;59.436;24.778;2022-11-25T08:19:01;25.77;;;15.10;;
40907;SDS011;51055;59.436;24.778;2022-11-25T08:21:29;25.25;;;14.45;;
40907;SDS011;51055;59.436;24.778;2022-11-25T08:23:56;25.95;;;14.82;;
40907;SDS011;51055;59.436;24.778;2022-11-25T08:26:24;27.92;;;15.40;;
40907;SDS011;51055;59.436;24.778;2022-11-25T08:31:23;25.10;;;14.60;;
40907;SDS011;51055;59.436;24.778;2022-11-25T08:33:52;24.92;;;13.70;;
40907;SDS011;51055;59.436;24.778;2022-11-25T08:36:20;26.42;;;14.70;;
40907;SDS011;51055;59.436;24.778;2022-11-25T08:38:49;20.02;;;10.90;;
40907;SDS011;51055;59.436;24.778;2022-11-25T08:41:22;24.42;;;13.95;;
40907;SDS011;51055;59.436;24.778;2022-11-25T08:43:50;23.65;;;13.95;;
40907;SDS011;51055;59.436;24.778;2022-11-25T08:46:19;21.67;;;13.07;;
40907;SDS011;51055;59.436;24.778;2022-11-25T08:48:47;23.80;;;13.60;;
40907;SDS011;51055;59.436;24.778;2022-11-25T08:51:16;25.83;;;13.73;;
40907;SDS011;51055;59.436;24.778;2022-11-25T08:53:44;21.95;;;12.55;;
40907;SDS011;51055;59.436;24.778;2022-11-25T08:56:12;24.58;;;13.05;;
40907;SDS011;51055;59.436;24.778;2022-11-25T08:58:39;25.63;;;14.55;;
40907;SDS011;51055;59.436;24.778;2022-11-25T09:01:07;21.80;;;13.23;;
40907;SDS011;51055;59.436;24.778;2022-11-25T09:03:35;21.85;;;13.45;;
40907;SDS011;51055;59.436;24.778;2022-11-25T09:06:03;17.60;;;10.02;;
40907;SDS011;51055;59.436;24.778;2022-11-25T09:08:31;21.80;;;13.82;;
40907;SDS011;51055;59.436;24.778;2022-11-25T09:10:59;20.92;;;12.85;;
40907;SDS011;51055;59.436;24.778;2022-11-25T09:13:26;25.02;;;13.30;;
40907;SDS011;51055;59.436;24.778;2022-11-25T09:15:54;20.02;;;11.25;;
40907;SDS011;51055;59.436;24.778;2022-11-25T09:18:22;14.95;;;8.88;;
40907;SDS011;51055;59.436;24.778;2022-11-25T09:20:52;22.50;;;13.07;;
40907;SDS011;51055;59.436;24.778;2022-11-25T09:23:20;22.63;;;12.93;;
40907;SDS011;51055;59.436;24.778;2022-11-25T09:25:49;23.05;;;12.55;;
40907;SDS011;51055;59.436;24.778;2022-11-25T09:28:17;20.83;;;12.32;;
40907;SDS011;51055;59.436;24.778;2022-11-25T09:30:44;23.13;;;11.85;;
40907;SDS011;51055;59.436;24.778;2022-11-25T09:33:11;39.63;;;17.67;;
40907;SDS011;51055;59.436;24.778;2022-11-25T09:35:38;31.40;;;17.05;;
40907;SDS011;51055;59.436;24.778;2022-11-25T09:38:05;25.35;;;13.45;;
40907;SDS011;51055;59.436;24.778;2022-11-25T09:40:35;22.52;;;11.82;;
40907;SDS011;51055;59.436;24.778;2022-11-25T09:49:05;23.20;;;12.45;;
40907;SDS011;51055;59.436;24.778;2022-11-25T09:54:26;22.48;;;12.15;;
40907;SDS011;51055;59.436;24.778;2022-11-25T09:57:06;20.13;;;12.25;;
40907;SDS011;51055;59.436;24.778;2022-11-25T09:59:51;21.00;;;11.90;;
40907;SDS011;51055;59.436;24.778;2022-11-25T10:02:42;21.30;;;12.07;;
40907;SDS011;51055;59.436;24.778;2022-11-25T10:07:37;26.95;;;13.20;;
40907;SDS011;51055;59.436;24.778;2022-11-25T10:10:08;33.65;;;19.20;;
40907;SDS011;51055;59.436;24.778;2022-11-25T10:12:42;21.85;;;12.15;;
40907;SDS011;51055;59.436;24.778;2022-11-25T10:15:25;23.23;;;12.43;;
40907;SDS011;51055;59.436;24.778;2022-11-25T10:17:54;21.92;;;11.90;;
40907;SDS011;51055;59.436;24.778;2022-11-25T10:20:24;21.27;;;11.48;;
40907;SDS011;51055;59.436;24.778;2022-11-25T10:22:54;21.95;;;12.38;;
40907;SDS011;51055;59.436;24.778;2022-11-25T10:25:24;36.00;;;19.73;;
40907;SDS011;51055;59.436;24.778;2022-11-25T10:35:46;19.88;;;10.90;;
40907;SDS011;51055;59.436;24.778;2022-11-25T10:38:20;23.88;;;12.32;;
40907;SDS011;51055;59.436;24.778;2022-11-25T10:40:49;23.25;;;13.30;;
40907;SDS011;51055;59.436;24.778;2022-11-25T10:43:18;24.08;;;12.77;;
40907;SDS011;51055;59.436;24.778;2022-11-25T10:45:48;22.88;;;13.82;;
40907;SDS011;51055;59.436;24.778;2022-11-25T10:53:30;22.67;;;11.07;;
40907;SDS011;51055;59.436;24.778;2022-11-25T10:56:01;22.20;;;11.70;;
40907;SDS011;51055;59.436;24.778;2022-11-25T11:03:46;17.83;;;9.95;;
40907;SDS011;51055;59.436;24.778;2022-11-25T11:06:39;16.88;;;9.48;;
40907;SDS011;51055;59.436;24.778;2022-11-25T11:09:05;19.30;;;10.10;;
40907;SDS011;51055;59.436;24.778;2022-11-25T11:11:32;18.63;;;10.30;;
40907;SDS011;51055;59.436;24.778;2022-11-25T11:14:13;21.40;;;10.93;;
40907;SDS011;51055;59.436;24.778;2022-11-25T11:16:46;17.52;;;9.15;;
40907;SDS011;51055;59.436;24.778;2022-11-25T11:19:25;17.38;;;9.43;;
40907;SDS011;51055;59.436;24.778;2022-11-25T11:21:53;18.48;;;10.32;;
40907;SDS011;51055;59.436;24.778;2022-11-25T11:24:26;19.35;;;10.23;;
40907;SDS011;51055;59.436;24.778;2022-11-25T11:29:36;21.02;;;9.38;;
40907;SDS011;51055;59.436;24.778;2022-11-25T11:32:04;17.98;;;9.30;;
40907;SDS011;51055;59.436;24.778;2022-11-25T11:40:08;17.73;;;9.75;;
40907;SDS011;51055;59.436;24.778;2022-11-25T11:52:55;17.83;;;10.00;;
40907;SDS011;51055;59.436;24.778;2022-11-25T12:00:28;17.80;;;9.18;;
40907;SDS011;51055;59.436;24.778;2022-11-25T12:03:00;16.08;;;8.55;;
40907;SDS011;51055;59.436;24.778;2022-11-25T12:05:34;16.33;;;8.57;;
40907;SDS011;51055;59.436;24.778;2022-11-25T12:10:44;19.45;;;10.13;;
40907;SDS011;51055;59.436;24.778;2022-11-25T12:20:49;16.55;;;9.20;;
40907;SDS011;51055;59.436;24.778;2022-11-25T12:23:31;18.25;;;8.57;;
40907;SDS011;51055;59.436;24.778;2022-11-25T12:26:07;16.83;;;8.55;;
40907;SDS011;51055;59.436;24.778;2022-11-25T12:28:39;23.70;;;12.40;;
40907;SDS011;51055;59.436;24.778;2022-11-25T12:31:13;20.30;;;9.50;;
40907;SDS011;51055;59.436;24.778;2022-11-25T12:33:52;15.93;;;8.57;;
40907;SDS011;51055;59.436;24.778;2022-11-25T12:38:52;15.80;;;7.60;;
40907;SDS011;51055;59.436;24.778;2022-11-25T12:43:49;16.70;;;8.30;;
40907;SDS011;51055;59.436;24.778;2022-11-25T12:46:23;15.10;;;7.38;;
40907;SDS011;51055;59.436;24.778;2022-11-25T12:48:52;19.15;;;9.18;;
40907;SDS011;51055;59.436;24.778;2022-11-25T12:51:36;15.73;;;8.05;;
40907;SDS011;51055;59.436;24.778;2022-11-25T12:54:09;16.73;;;8.35;;
40907;SDS011;51055;59.436;24.778;2022-11-25T12:59:32;12.65;;;6.70;;
40907;SDS011;51055;59.436;24.778;2022-11-25T13:02:13;14.88;;;7.40;;
40907;SDS011;51055;59.436;24.778;2022-11-25T13:04:52;16.85;;;7.93;;
40907;SDS011;51055;59.436;24.778;2022-11-25T13:15:03;15.55;;;7.22;;
40907;SDS011;51055;59.436;24.778;2022-11-25T13:17:39;13.90;;;6.68;;
40907;SDS011;51055;59.436;24.778;2022-11-25T13:25:37;14.77;;;7.13;;
40907;SDS011;51055;59.436;24.778;2022-11-25T13:28:05;12.80;;;6.32;;
40907;SDS011;51055;59.436;24.778;2022-11-25T13:30:51;13.45;;;6.75;;
40907;SDS011;51055;59.436;24.778;2022-11-25T13:35:51;14.68;;;7.03;;
40907;SDS011;51055;59.436;24.778;2022-11-25T13:46:42;14.40;;;7.50;;
40907;SDS011;51055;59.436;24.778;2022-11-25T13:51:51;13.98;;;6.72;;
40907;SDS011;51055;59.436;24.778;2022-11-25T13:54:19;13.82;;;7.18;;
40907;SDS011;51055;59.436;24.778;2022-11-25T13:57:32;14.13;;;7.00;;
40907;SDS011;51055;59.436;24.778;2022-11-25T14:02:34;13.60;;;7.38;;
40907;SDS011;51055;59.436;24.778;2022-11-25T14:05:03;14.00;;;8.50;;
40907;SDS011;51055;59.436;24.778;2022-11-25T14:07:38;15.35;;;7.13;;
40907;SDS011;51055;59.436;24.778;2022-11-25T14:15:46;13.93;;;6.82;;
40907;SDS011;51055;59.436;24.778;2022-11-25T14:26:33;13.95;;;7.28;;
40907;SDS011;51055;59.436;24.778;2022-11-25T14:29:18;12.30;;;6.90;;
40907;SDS011;51055;59.436;24.778;2022-11-25T14:31:54;13.13;;;7.28;;
40907;SDS011;51055;59.436;24.778;2022-11-25T14:34:26;14.68;;;7.43;;
40907;SDS011;51055;59.436;24.778;2022-11-25T14:37:09;13.82;;;7.47;;
40907;SDS011;51055;59.436;24.778;2022-11-25T14:42:09;18.55;;;9.90;;
40907;SDS011;51055;59.436;24.778;2022-11-25T14:47:11;14.45;;;7.70;;
40907;SDS011;51055;59.436;24.778;2022-11-25T14:49:45;13.48;;;7.40;;
40907;SDS011;51055;59.436;24.778;2022-11-25T14:52:34;15.10;;;6.80;;
40907;SDS011;51055;59.436;24.778;2022-11-25T14:55:02;11.38;;;6.30;;
40907;SDS011;51055;59.436;24.778;2022-11-25T14:57:34;18.23;;;9.95;;
40907;SDS011;51055;59.436;24.778;2022-11-25T15:00:10;16.23;;;7.70;;
40907;SDS011;51055;59.436;24.778;2022-11-25T15:02:39;13.55;;;8.02;;
40907;SDS011;51055;59.436;24.778;2022-11-25T15:07:34;14.77;;;7.43;;
40907;SDS011;51055;59.436;24.778;2022-11-25T15:10:01;12.82;;;7.40;;
40907;SDS011;51055;59.436;24.778;2022-11-25T15:12:30;12.70;;;6.72;;
40907;SDS011;51055;59.436;24.778;2022-11-25T15:14:58;14.70;;;7.45;;
40907;SDS011;51055;59.436;24.778;2022-11-25T15:17:29;40.15;;;21.48;;
40907;SDS011;51055;59.436;24.778;2022-11-25T15:19:57;12.65;;;6.60;;
40907;SDS011;51055;59.436;24.778;2022-11-25T15:22:25;12.73;;;5.97;;
40907;SDS011;51055;59.436;24.778;2022-11-25T15:24:54;13.65;;;7.90;;
40907;SDS011;51055;59.436;24.778;2022-11-25T15:27:24;21.48;;;10.98;;
40907;SDS011;51055;59.436;24.778;2022-11-25T15:32:22;14.05;;;7.15;;
40907;SDS011;51055;59.436;24.778;2022-11-25T15:34:51;16.88;;;8.82;;
40907;SDS011;51055;59.436;24.778;2022-11-25T15:37:19;12.20;;;6.80;;
40907;SDS011;51055;59.436;24.778;2022-11-25T15:39:47;14.77;;;7.40;;
40907;SDS011;51055;59.436;24.778;2022-11-25T15:42:22;20.27;;;10.50;;
40907;SDS011;51055;59.436;24.778;2022-11-25T15:47:20;12.13;;;7.10;;
40907;SDS011;51055;59.436;24.778;2022-11-25T15:49:52;18.33;;;8.25;;
40907;SDS011;51055;59.436;24.778;2022-11-25T15:52:22;16.00;;;7.18;;
40907;SDS011;51055;59.436;24.778;2022-11-25T15:54:50;15.40;;;7.15;;
40907;SDS011;51055;59.436;24.778;2022-11-25T15:57:19;10.80;;;6.55;;
40907;SDS011;51055;59.436;24.778;2022-11-25T15:59:49;12.40;;;6.65;;
40907;SDS011;51055;59.436;24.778;2022-11-25T16:04:43;13.65;;;7.20;;
40907;SDS011;51055;59.436;24.778;2022-11-25T16:07:20;17.63;;;8.60;;
40907;SDS011;51055;59.436;24.778;2022-11-25T16:09:49;13.52;;;7.05;;
40907;SDS011;51055;59.436;24.778;2022-11-25T16:12:16;12.47;;;6.30;;
40907;SDS011;51055;59.436;24.778;2022-11-25T16:14:43;13.45;;;6.70;;
40907;SDS011;51055;59.436;24.778;2022-11-25T16:17:10;13.18;;;7.03;;
40907;SDS011;51055;59.436;24.778;2022-11-25T16:19:39;14.77;;;7.47;;
40907;SDS011;51055;59.436;24.778;2022-11-25T16:22:11;14.75;;;7.53;;
40907;SDS011;51055;59.436;24.778;2022-11-25T16:27:17;14.63;;;7.03;;
40907;SDS011;51055;59.436;24.778;2022-11-25T16:29:50;13.32;;;7.53;;
40907;SDS011;51055;59.436;24.778;2022-11-25T16:32:19;14.75;;;7.78;;
40907;SDS011;51055;59.436;24.778;2022-11-25T16:34:46;20.13;;;9.38;;
40907;SDS011;51055;59.436;24.778;2022-11-25T16:37:14;21.48;;;12.00;;
40907;SDS011;51055;59.436;24.778;2022-11-25T16:39:42;30.02;;;16.33;;
40907;SDS011;51055;59.436;24.778;2022-11-25T16:42:14;16.83;;;8.93;;
40907;SDS011;51055;59.436;24.778;2022-11-25T16:44:42;18.45;;;10.57;;
40907;SDS011;51055;59.436;24.778;2022-11-25T16:47:11;25.63;;;16.00;;
40907;SDS011;51055;59.436;24.778;2022-11-25T16:49:39;18.90;;;11.10;;
40907;SDS011;51055;59.436;24.778;2022-11-25T16:52:06;12.13;;;6.30;;
40907;SDS011;51055;59.436;24.778;2022-11-25T16:54:34;12.15;;;5.45;;
40907;SDS011;51055;59.436;24.778;2022-11-25T16:57:03;12.23;;;6.10;;
40907;SDS011;51055;59.436;24.778;2022-11-25T16:59:32;16.42;;;8.30;;
40907;SDS011;51055;59.436;24.778;2022-11-25T17:02:01;16.95;;;8.00;;